sensor_id;sensor_type;location;lat;lon;timestamp;temperature;humidity
6407;DHT22;3236;51.022;6.818;2023-06-10T00:02:23;18.30;99.90
6407;DHT22;3236;51.022;6.818;2023-06-10T00:04:50;18.20;99.90
6407;DHT22;3236;51.022;6.818;2023-06-10T00:07:18;18.10;99.90
6407;DHT22;3236;51.022;6.818;2023-06-10T00:09:45;18.00;99.90
6407;DHT22;3236;51.022;6.818;2023-06-10T00:12:12;18.00;99.90
6407;DHT22;3236;51.022;6.818;2023-06-10T00:14:40;17.90;99.90
6407;DHT22;3236;51.022;6.818;2023-06-10T00:17:07;17.90;99.90
6407;DHT22;3236;51.022;6.818;2023-06-10T00:19:40;17.70;99.90
6407;DHT22;3236;51.022;6.818;2023-06-10T00:22:07;17.70;99.90
6407;DHT22;3236;51.022;6.818;2023-06-10T00:24:36;17.70;99.90
6407;DHT22;3236;51.022;6.818;2023-06-10T00:27:04;17.60;99.90
6407;DHT22;3236;51.022;6.818;2023-06-10T00:29:34;17.60;99.90
6407;DHT22;3236;51.022;6.818;2023-06-10T00:32:02;17.50;99.90
6407;DHT22;3236;51.022;6.818;2023-06-10T00:34:29;17.70;99.90
6407;DHT22;3236;51.022;6.818;2023-06-10T00:36:59;17.70;99.90
6407;DHT22;3236;51.022;6.818;2023-06-10T00:39:26;17.60;99.90
6407;DHT22;3236;51.022;6.818;2023-06-10T00:41:53;17.50;99.90
6407;DHT22;3236;51.022;6.818;2023-06-10T00:44:23;17.50;99.90
6407;DHT22;3236;51.022;6.818;2023-06-10T00:46:50;17.40;99.90
6407;DHT22;3236;51.022;6.818;2023-06-10T00:49:21;17.40;99.90
6407;DHT22;3236;51.022;6.818;2023-06-10T00:51:48;17.30;99.90
6407;DHT22;3236;51.022;6.818;2023-06-10T00:56:49;17.00;99.90
6407;DHT22;3236;51.022;6.818;2023-06-10T00:59:17;17.10;99.90
6407;DHT22;3236;51.022;6.818;2023-06-10T01:01:44;17.10;99.90
6407;DHT22;3236;51.022;6.818;2023-06-10T01:04:12;16.90;99.90
6407;DHT22;3236;51.022;6.818;2023-06-10T01:06:47;17.10;99.90
6407;DHT22;3236;51.022;6.818;2023-06-10T01:09:31;17.20;99.90
6407;DHT22;3236;51.022;6.818;2023-06-10T01:12:05;17.40;99.90
6407;DHT22;3236;51.022;6.818;2023-06-10T01:14:38;17.20;99.90
6407;DHT22;3236;51.022;6.818;2023-06-10T01:17:13;17.10;99.90
6407;DHT22;3236;51.022;6.818;2023-06-10T01:19:42;17.10;99.90
6407;DHT22;3236;51.022;6.818;2023-06-10T01:22:11;17.00;99.90
6407;DHT22;3236;51.022;6.818;2023-06-10T01:24:41;17.30;99.90
6407;DHT22;3236;51.022;6.818;2023-06-10T01:27:12;17.00;99.90
6407;DHT22;3236;51.022;6.818;2023-06-10T01:29:41;17.00;99.90
6407;DHT22;3236;51.022;6.818;2023-06-10T01:32:16;16.90;99.90
6407;DHT22;3236;51.022;6.818;2023-06-10T01:34:44;17.00;99.90
6407;DHT22;3236;51.022;6.818;2023-06-10T01:37:17;16.70;99.90
6407;DHT22;3236;51.022;6.818;2023-06-10T01:39:45;16.90;99.90
6407;DHT22;3236;51.022;6.818;2023-06-10T01:42:13;16.80;99.90
6407;DHT22;3236;51.022;6.818;2023-06-10T01:44:40;16.70;99.90
6407;DHT22;3236;51.022;6.818;2023-06-10T01:47:08;16.70;99.90
6407;DHT22;3236;51.022;6.818;2023-06-10T01:49:35;16.60;99.90
6407;DHT22;3236;51.022;6.818;2023-06-10T01:52:03;16.80;99.90
6407;DHT22;3236;51.022;6.818;2023-06-10T01:54:32;16.80;99.90
6407;DHT22;3236;51.022;6.818;2023-06-10T01:57:00;16.60;99.90
6407;DHT22;3236;51.022;6.818;2023-06-10T01:59:27;16.70;99.90
6407;DHT22;3236;51.022;6.818;2023-06-10T02:01:54;16.70;99.90
6407;DHT22;3236;51.022;6.818;2023-06-10T02:04:21;16.60;99.90
6407;DHT22;3236;51.022;6.818;2023-06-10T02:06:48;16.60;99.90
6407;DHT22;3236;51.022;6.818;2023-06-10T02:09:16;16.50;99.90
6407;DHT22;3236;51.022;6.818;2023-06-10T02:11:45;16.10;99.90
6407;DHT22;3236;51.022;6.818;2023-06-10T02:14:12;16.40;99.90
6407;DHT22;3236;51.022;6.818;2023-06-10T02:16:40;16.50;99.90
6407;DHT22;3236;51.022;6.818;2023-06-10T02:19:07;15.30;99.90
6407;DHT22;3236;51.022;6.818;2023-06-10T02:21:34;16.20;99.90
6407;DHT22;3236;51.022;6.818;2023-06-10T02:24:01;16.10;99.90
6407;DHT22;3236;51.022;6.818;2023-06-10T02:26:28;16.10;99.90
6407;DHT22;3236;51.022;6.818;2023-06-10T02:28:57;15.80;99.90
6407;DHT22;3236;51.022;6.818;2023-06-10T02:31:24;16.20;99.90
6407;DHT22;3236;51.022;6.818;2023-06-10T02:33:52;15.80;99.90
6407;DHT22;3236;51.022;6.818;2023-06-10T02:36:19;15.80;99.90
6407;DHT22;3236;51.022;6.818;2023-06-10T02:38:47;15.70;99.90
6407;DHT22;3236;51.022;6.818;2023-06-10T02:41:14;15.70;99.90
6407;DHT22;3236;51.022;6.818;2023-06-10T02:43:41;15.60;99.90
6407;DHT22;3236;51.022;6.818;2023-06-10T02:46:10;15.50;99.90
6407;DHT22;3236;51.022;6.818;2023-06-10T02:48:41;15.50;99.90
6407;DHT22;3236;51.022;6.818;2023-06-10T02:51:09;15.50;99.90
6407;DHT22;3236;51.022;6.818;2023-06-10T02:53:39;15.40;99.90
6407;DHT22;3236;51.022;6.818;2023-06-10T02:56:06;15.80;99.90
6407;DHT22;3236;51.022;6.818;2023-06-10T02:58:33;15.80;99.90
6407;DHT22;3236;51.022;6.818;2023-06-10T03:01:01;15.70;99.90
6407;DHT22;3236;51.022;6.818;2023-06-10T03:03:29;15.60;99.90
6407;DHT22;3236;51.022;6.818;2023-06-10T03:05:58;15.50;99.90
6407;DHT22;3236;51.022;6.818;2023-06-10T03:08:25;15.60;99.90
6407;DHT22;3236;51.022;6.818;2023-06-10T03:10:53;15.50;99.90
6407;DHT22;3236;51.022;6.818;2023-06-10T03:15:48;15.40;99.90
6407;DHT22;3236;51.022;6.818;2023-06-10T03:18:15;15.30;99.90
6407;DHT22;3236;51.022;6.818;2023-06-10T03:20:44;15.30;99.90
6407;DHT22;3236;51.022;6.818;2023-06-10T03:23:12;15.20;99.90
6407;DHT22;3236;51.022;6.818;2023-06-10T03:25:42;15.30;99.90
6407;DHT22;3236;51.022;6.818;2023-06-10T03:28:09;15.30;99.90
6407;DHT22;3236;51.022;6.818;2023-06-10T03:30:36;15.90;99.90
6407;DHT22;3236;51.022;6.818;2023-06-10T03:33:03;15.30;99.90
6407;DHT22;3236;51.022;6.818;2023-06-10T03:35:30;15.40;99.90
6407;DHT22;3236;51.022;6.818;2023-06-10T03:38:01;15.70;99.90
6407;DHT22;3236;51.022;6.818;2023-06-10T03:40:29;15.40;99.90
6407;DHT22;3236;51.022;6.818;2023-06-10T03:42:57;15.40;99.90
6407;DHT22;3236;51.022;6.818;2023-06-10T03:45:24;15.30;99.90
6407;DHT22;3236;51.022;6.818;2023-06-10T03:47:53;15.20;99.90
6407;DHT22;3236;51.022;6.818;2023-06-10T03:50:21;15.30;99.90
6407;DHT22;3236;51.022;6.818;2023-06-10T03:52:50;15.20;99.90
6407;DHT22;3236;51.022;6.818;2023-06-10T03:55:19;15.20;99.90
6407;DHT22;3236;51.022;6.818;2023-06-10T03:57:47;15.20;99.90
6407;DHT22;3236;51.022;6.818;2023-06-10T04:00:16;15.20;99.90
6407;DHT22;3236;51.022;6.818;2023-06-10T04:02:43;15.30;99.90
6407;DHT22;3236;51.022;6.818;2023-06-10T04:05:13;15.40;99.90
6407;DHT22;3236;51.022;6.818;2023-06-10T04:07:40;15.50;99.90
6407;DHT22;3236;51.022;6.818;2023-06-10T04:10:11;15.50;99.90
6407;DHT22;3236;51.022;6.818;2023-06-10T04:12:41;15.50;99.90
6407;DHT22;3236;51.022;6.818;2023-06-10T04:15:10;15.50;99.90
6407;DHT22;3236;51.022;6.818;2023-06-10T04:17:38;15.60;99.90
6407;DHT22;3236;51.022;6.818;2023-06-10T04:20:08;15.70;99.90
6407;DHT22;3236;51.022;6.818;2023-06-10T04:22:36;15.80;99.90
6407;DHT22;3236;51.022;6.818;2023-06-10T04:25:04;15.80;99.90
6407;DHT22;3236;51.022;6.818;2023-06-10T04:27:35;15.80;99.90
6407;DHT22;3236;51.022;6.818;2023-06-10T04:30:06;15.80;99.90
6407;DHT22;3236;51.022;6.818;2023-06-10T04:32:33;15.80;99.90
6407;DHT22;3236;51.022;6.818;2023-06-10T04:35:07;16.20;99.90
6407;DHT22;3236;51.022;6.818;2023-06-10T04:40:03;15.50;99.90
6407;DHT22;3236;51.022;6.818;2023-06-10T04:42:31;16.60;99.90
6407;DHT22;3236;51.022;6.818;2023-06-10T04:44:58;16.30;99.90
6407;DHT22;3236;51.022;6.818;2023-06-10T04:47:27;16.50;99.90
6407;DHT22;3236;51.022;6.818;2023-06-10T04:49:54;16.70;99.90
6407;DHT22;3236;51.022;6.818;2023-06-10T04:52:21;16.80;99.90
6407;DHT22;3236;51.022;6.818;2023-06-10T04:54:48;16.90;99.90
6407;DHT22;3236;51.022;6.818;2023-06-10T04:57:15;17.00;99.90
6407;DHT22;3236;51.022;6.818;2023-06-10T04:59:42;17.20;99.90
6407;DHT22;3236;51.022;6.818;2023-06-10T05:02:09;17.30;99.90
6407;DHT22;3236;51.022;6.818;2023-06-10T05:04:39;17.40;99.90
6407;DHT22;3236;51.022;6.818;2023-06-10T05:07:07;17.50;99.90
6407;DHT22;3236;51.022;6.818;2023-06-10T05:09:34;17.80;99.90
6407;DHT22;3236;51.022;6.818;2023-06-10T05:12:01;17.80;99.90
6407;DHT22;3236;51.022;6.818;2023-06-10T05:14:29;17.90;99.90
6407;DHT22;3236;51.022;6.818;2023-06-10T05:16:57;16.70;99.90
6407;DHT22;3236;51.022;6.818;2023-06-10T05:19:24;18.10;99.90
6407;DHT22;3236;51.022;6.818;2023-06-10T05:21:54;18.40;99.90
6407;DHT22;3236;51.022;6.818;2023-06-10T05:24:21;18.30;99.90
6407;DHT22;3236;51.022;6.818;2023-06-10T05:26:48;18.40;99.90
6407;DHT22;3236;51.022;6.818;2023-06-10T05:29:16;18.60;99.90
6407;DHT22;3236;51.022;6.818;2023-06-10T05:31:43;18.60;99.90
6407;DHT22;3236;51.022;6.818;2023-06-10T05:34:10;18.80;99.90
6407;DHT22;3236;51.022;6.818;2023-06-10T05:36:37;18.90;99.90
6407;DHT22;3236;51.022;6.818;2023-06-10T05:39:05;19.10;99.90
6407;DHT22;3236;51.022;6.818;2023-06-10T05:41:32;19.20;99.90
6407;DHT22;3236;51.022;6.818;2023-06-10T05:44:01;19.40;99.90
6407;DHT22;3236;51.022;6.818;2023-06-10T05:46:30;19.60;99.90
6407;DHT22;3236;51.022;6.818;2023-06-10T05:48:57;19.70;99.90
6407;DHT22;3236;51.022;6.818;2023-06-10T05:51:24;19.80;99.90
6407;DHT22;3236;51.022;6.818;2023-06-10T05:53:51;19.90;99.90
6407;DHT22;3236;51.022;6.818;2023-06-10T05:56:20;20.00;99.90
6407;DHT22;3236;51.022;6.818;2023-06-10T05:58:51;20.20;99.90
6407;DHT22;3236;51.022;6.818;2023-06-10T06:01:18;20.30;99.90
6407;DHT22;3236;51.022;6.818;2023-06-10T06:03:45;20.50;99.90
6407;DHT22;3236;51.022;6.818;2023-06-10T06:06:13;20.60;99.90
6407;DHT22;3236;51.022;6.818;2023-06-10T06:08:41;20.80;99.90
6407;DHT22;3236;51.022;6.818;2023-06-10T06:11:08;20.90;99.90
6407;DHT22;3236;51.022;6.818;2023-06-10T06:13:37;20.90;99.90
6407;DHT22;3236;51.022;6.818;2023-06-10T06:16:04;21.10;99.90
6407;DHT22;3236;51.022;6.818;2023-06-10T06:18:34;21.20;99.90
6407;DHT22;3236;51.022;6.818;2023-06-10T06:21:08;21.30;99.90
6407;DHT22;3236;51.022;6.818;2023-06-10T06:23:35;21.40;99.90
6407;DHT22;3236;51.022;6.818;2023-06-10T06:26:02;21.50;99.90
6407;DHT22;3236;51.022;6.818;2023-06-10T06:28:30;21.60;99.90
6407;DHT22;3236;51.022;6.818;2023-06-10T06:30:58;21.70;99.90
6407;DHT22;3236;51.022;6.818;2023-06-10T06:33:26;21.80;99.90
6407;DHT22;3236;51.022;6.818;2023-06-10T06:35:54;21.90;99.90
6407;DHT22;3236;51.022;6.818;2023-06-10T06:38:24;22.00;99.90
6407;DHT22;3236;51.022;6.818;2023-06-10T06:40:54;22.10;99.90
6407;DHT22;3236;51.022;6.818;2023-06-10T06:43:21;22.20;99.90
6407;DHT22;3236;51.022;6.818;2023-06-10T06:46:05;22.30;99.90
6407;DHT22;3236;51.022;6.818;2023-06-10T06:51:01;22.80;99.90
6407;DHT22;3236;51.022;6.818;2023-06-10T06:53:28;22.80;99.90
6407;DHT22;3236;51.022;6.818;2023-06-10T06:55:55;22.70;99.90
6407;DHT22;3236;51.022;6.818;2023-06-10T06:58:23;22.70;99.90
6407;DHT22;3236;51.022;6.818;2023-06-10T07:00:50;23.00;99.90
6407;DHT22;3236;51.022;6.818;2023-06-10T07:03:19;23.20;99.90
6407;DHT22;3236;51.022;6.818;2023-06-10T07:05:46;23.30;99.90
6407;DHT22;3236;51.022;6.818;2023-06-10T07:08:13;23.70;99.90
6407;DHT22;3236;51.022;6.818;2023-06-10T07:10:40;23.60;99.90
6407;DHT22;3236;51.022;6.818;2023-06-10T07:13:07;23.60;99.90
6407;DHT22;3236;51.022;6.818;2023-06-10T07:15:36;23.70;99.90
6407;DHT22;3236;51.022;6.818;2023-06-10T07:18:03;24.20;99.90
6407;DHT22;3236;51.022;6.818;2023-06-10T07:20:32;24.20;99.90
6407;DHT22;3236;51.022;6.818;2023-06-10T07:23:00;24.20;99.90
6407;DHT22;3236;51.022;6.818;2023-06-10T07:25:29;24.40;99.90
6407;DHT22;3236;51.022;6.818;2023-06-10T07:27:56;24.50;99.40
6407;DHT22;3236;51.022;6.818;2023-06-10T07:30:25;24.50;98.60
6407;DHT22;3236;51.022;6.818;2023-06-10T07:32:52;24.70;98.10
6407;DHT22;3236;51.022;6.818;2023-06-10T07:35:28;25.00;98.10
6407;DHT22;3236;51.022;6.818;2023-06-10T07:37:57;25.20;95.10
6407;DHT22;3236;51.022;6.818;2023-06-10T07:40:27;25.20;93.40
6407;DHT22;3236;51.022;6.818;2023-06-10T07:42:55;25.30;92.10
6407;DHT22;3236;51.022;6.818;2023-06-10T07:45:22;25.40;91.50
6407;DHT22;3236;51.022;6.818;2023-06-10T07:47:51;25.30;90.90
6407;DHT22;3236;51.022;6.818;2023-06-10T07:52:45;25.80;87.00
6407;DHT22;3236;51.022;6.818;2023-06-10T07:55:14;26.10;85.50
6407;DHT22;3236;51.022;6.818;2023-06-10T07:57:41;26.00;83.90
6407;DHT22;3236;51.022;6.818;2023-06-10T08:00:09;26.10;84.80
6407;DHT22;3236;51.022;6.818;2023-06-10T08:02:36;26.20;83.60
6407;DHT22;3236;51.022;6.818;2023-06-10T08:05:04;26.20;81.70
6407;DHT22;3236;51.022;6.818;2023-06-10T08:07:31;26.40;83.90
6407;DHT22;3236;51.022;6.818;2023-06-10T08:09:58;26.30;78.80
6407;DHT22;3236;51.022;6.818;2023-06-10T08:12:30;25.90;78.70
6407;DHT22;3236;51.022;6.818;2023-06-10T08:14:56;26.20;79.30
6407;DHT22;3236;51.022;6.818;2023-06-10T08:17:24;26.30;78.60
6407;DHT22;3236;51.022;6.818;2023-06-10T08:19:51;26.60;80.00
6407;DHT22;3236;51.022;6.818;2023-06-10T08:22:18;26.80;80.30
6407;DHT22;3236;51.022;6.818;2023-06-10T08:24:45;26.90;80.20
6407;DHT22;3236;51.022;6.818;2023-06-10T08:27:13;26.80;75.30
6407;DHT22;3236;51.022;6.818;2023-06-10T08:29:42;27.10;84.20
6407;DHT22;3236;51.022;6.818;2023-06-10T08:32:09;27.20;83.20
6407;DHT22;3236;51.022;6.818;2023-06-10T08:34:37;27.20;82.30
6407;DHT22;3236;51.022;6.818;2023-06-10T08:37:05;27.30;80.00
6407;DHT22;3236;51.022;6.818;2023-06-10T08:39:32;27.30;79.50
6407;DHT22;3236;51.022;6.818;2023-06-10T08:42:10;27.60;75.70
6407;DHT22;3236;51.022;6.818;2023-06-10T08:44:38;27.80;74.30
6407;DHT22;3236;51.022;6.818;2023-06-10T08:47:13;27.90;75.50
6407;DHT22;3236;51.022;6.818;2023-06-10T08:49:43;28.30;75.70
6407;DHT22;3236;51.022;6.818;2023-06-10T08:52:13;28.20;67.50
6407;DHT22;3236;51.022;6.818;2023-06-10T08:54:49;28.10;71.80
6407;DHT22;3236;51.022;6.818;2023-06-10T08:57:21;28.30;69.20
6407;DHT22;3236;51.022;6.818;2023-06-10T08:59:49;28.60;73.20
6407;DHT22;3236;51.022;6.818;2023-06-10T09:02:18;28.40;65.70
6407;DHT22;3236;51.022;6.818;2023-06-10T09:04:47;28.50;64.20
6407;DHT22;3236;51.022;6.818;2023-06-10T09:07:17;28.40;66.50
6407;DHT22;3236;51.022;6.818;2023-06-10T09:09:45;28.20;60.50
6407;DHT22;3236;51.022;6.818;2023-06-10T09:12:14;28.30;64.40
6407;DHT22;3236;51.022;6.818;2023-06-10T09:14:41;28.70;67.90
6407;DHT22;3236;51.022;6.818;2023-06-10T09:17:10;29.30;64.30
6407;DHT22;3236;51.022;6.818;2023-06-10T09:19:40;29.40;64.10
6407;DHT22;3236;51.022;6.818;2023-06-10T09:22:08;29.40;61.10
6407;DHT22;3236;51.022;6.818;2023-06-10T09:27:04;29.40;60.30
6407;DHT22;3236;51.022;6.818;2023-06-10T09:29:32;29.40;60.30
6407;DHT22;3236;51.022;6.818;2023-06-10T09:32:12;29.70;60.40
6407;DHT22;3236;51.022;6.818;2023-06-10T09:34:41;29.80;59.40
6407;DHT22;3236;51.022;6.818;2023-06-10T09:37:08;29.70;57.70
6407;DHT22;3236;51.022;6.818;2023-06-10T09:39:38;29.90;57.50
6407;DHT22;3236;51.022;6.818;2023-06-10T09:42:16;29.90;57.60
6407;DHT22;3236;51.022;6.818;2023-06-10T09:44:49;30.30;58.00
6407;DHT22;3236;51.022;6.818;2023-06-10T09:47:20;30.50;53.90
6407;DHT22;3236;51.022;6.818;2023-06-10T09:49:49;30.50;53.20
6407;DHT22;3236;51.022;6.818;2023-06-10T09:52:21;30.90;50.80
6407;DHT22;3236;51.022;6.818;2023-06-10T09:54:50;31.30;50.40
6407;DHT22;3236;51.022;6.818;2023-06-10T09:57:18;31.20;47.50
6407;DHT22;3236;51.022;6.818;2023-06-10T10:07:15;31.20;45.50
6407;DHT22;3236;51.022;6.818;2023-06-10T10:09:46;31.60;44.10
6407;DHT22;3236;51.022;6.818;2023-06-10T10:12:17;31.70;45.80
6407;DHT22;3236;51.022;6.818;2023-06-10T10:14:49;31.90;42.10
6407;DHT22;3236;51.022;6.818;2023-06-10T10:17:20;32.30;44.00
6407;DHT22;3236;51.022;6.818;2023-06-10T10:19:54;32.40;41.70
6407;DHT22;3236;51.022;6.818;2023-06-10T10:22:35;32.40;40.80
6407;DHT22;3236;51.022;6.818;2023-06-10T10:25:09;32.70;41.70
6407;DHT22;3236;51.022;6.818;2023-06-10T10:27:43;32.70;36.00
6407;DHT22;3236;51.022;6.818;2023-06-10T10:30:14;32.20;33.10
6407;DHT22;3236;51.022;6.818;2023-06-10T10:32:52;32.60;39.40
6407;DHT22;3236;51.022;6.818;2023-06-10T10:35:23;33.20;35.40
6407;DHT22;3236;51.022;6.818;2023-06-10T10:37:54;33.50;37.10
6407;DHT22;3236;51.022;6.818;2023-06-10T10:40:22;33.80;34.50
6407;DHT22;3236;51.022;6.818;2023-06-10T10:42:51;33.30;31.10
6407;DHT22;3236;51.022;6.818;2023-06-10T10:45:21;33.00;29.00
6407;DHT22;3236;51.022;6.818;2023-06-10T10:50:23;33.00;29.80
6407;DHT22;3236;51.022;6.818;2023-06-10T10:52:55;32.80;31.10
6407;DHT22;3236;51.022;6.818;2023-06-10T10:55:23;32.50;32.90
6407;DHT22;3236;51.022;6.818;2023-06-10T10:57:55;32.50;32.60
6407;DHT22;3236;51.022;6.818;2023-06-10T11:00:30;32.00;36.40
6407;DHT22;3236;51.022;6.818;2023-06-10T11:03:07;31.90;36.60
6407;DHT22;3236;51.022;6.818;2023-06-10T11:05:39;31.90;38.90
6407;DHT22;3236;51.022;6.818;2023-06-10T11:08:08;32.40;38.00
6407;DHT22;3236;51.022;6.818;2023-06-10T11:10:37;32.50;38.90
6407;DHT22;3236;51.022;6.818;2023-06-10T11:13:09;31.70;38.70
6407;DHT22;3236;51.022;6.818;2023-06-10T11:15:43;31.40;40.50
6407;DHT22;3236;51.022;6.818;2023-06-10T11:18:15;31.30;44.30
6407;DHT22;3236;51.022;6.818;2023-06-10T11:20:54;31.60;42.00
6407;DHT22;3236;51.022;6.818;2023-06-10T11:23:41;31.10;42.10
6407;DHT22;3236;51.022;6.818;2023-06-10T11:26:46;30.60;46.10
6407;DHT22;3236;51.022;6.818;2023-06-10T11:29:19;30.40;47.90
6407;DHT22;3236;51.022;6.818;2023-06-10T11:31:50;30.70;49.50
6407;DHT22;3236;51.022;6.818;2023-06-10T11:34:35;30.80;44.40
6407;DHT22;3236;51.022;6.818;2023-06-10T11:37:05;30.60;43.30
6407;DHT22;3236;51.022;6.818;2023-06-10T11:39:40;30.20;41.80
6407;DHT22;3236;51.022;6.818;2023-06-10T11:42:11;29.80;42.20
6407;DHT22;3236;51.022;6.818;2023-06-10T11:44:38;29.70;43.50
6407;DHT22;3236;51.022;6.818;2023-06-10T11:47:06;29.70;44.80
6407;DHT22;3236;51.022;6.818;2023-06-10T11:49:33;29.60;40.90
6407;DHT22;3236;51.022;6.818;2023-06-10T11:52:00;29.50;42.80
6407;DHT22;3236;51.022;6.818;2023-06-10T11:54:27;29.30;37.90
6407;DHT22;3236;51.022;6.818;2023-06-10T11:56:59;29.60;41.80
6407;DHT22;3236;51.022;6.818;2023-06-10T11:59:27;29.70;43.50
6407;DHT22;3236;51.022;6.818;2023-06-10T12:01:56;29.80;41.70
6407;DHT22;3236;51.022;6.818;2023-06-10T12:04:26;29.80;43.90
6407;DHT22;3236;51.022;6.818;2023-06-10T12:06:54;29.80;43.00
6407;DHT22;3236;51.022;6.818;2023-06-10T12:09:23;29.80;42.20
6407;DHT22;3236;51.022;6.818;2023-06-10T12:11:54;29.70;36.30
6407;DHT22;3236;51.022;6.818;2023-06-10T12:14:53;29.80;44.70
6407;DHT22;3236;51.022;6.818;2023-06-10T12:17:23;29.90;48.70
6407;DHT22;3236;51.022;6.818;2023-06-10T12:19:52;30.00;48.90
6407;DHT22;3236;51.022;6.818;2023-06-10T12:22:20;30.10;48.70
6407;DHT22;3236;51.022;6.818;2023-06-10T12:27:34;30.60;47.60
6407;DHT22;3236;51.022;6.818;2023-06-10T12:30:06;32.10;44.50
6407;DHT22;3236;51.022;6.818;2023-06-10T12:32:38;33.30;33.90
6407;DHT22;3236;51.022;6.818;2023-06-10T12:40:05;34.80;22.60
6407;DHT22;3236;51.022;6.818;2023-06-10T12:42:36;35.00;16.20
6407;DHT22;3236;51.022;6.818;2023-06-10T12:45:06;35.70;15.00
6407;DHT22;3236;51.022;6.818;2023-06-10T12:47:37;36.00;12.40
6407;DHT22;3236;51.022;6.818;2023-06-10T12:50:07;37.40;9.30
6407;DHT22;3236;51.022;6.818;2023-06-10T12:52:34;37.20;8.90
6407;DHT22;3236;51.022;6.818;2023-06-10T13:07:28;37.60;5.30
6407;DHT22;3236;51.022;6.818;2023-06-10T13:12:26;37.30;3.90
6407;DHT22;3236;51.022;6.818;2023-06-10T13:17:22;38.50;6.30
6407;DHT22;3236;51.022;6.818;2023-06-10T13:22:21;37.70;7.00
6407;DHT22;3236;51.022;6.818;2023-06-10T13:24:49;36.40;5.80
6407;DHT22;3236;51.022;6.818;2023-06-10T13:27:17;36.20;5.50
6407;DHT22;3236;51.022;6.818;2023-06-10T13:32:25;33.40;8.70
6407;DHT22;3236;51.022;6.818;2023-06-10T13:37:27;32.60;12.10
6407;DHT22;3236;51.022;6.818;2023-06-10T13:39:55;32.40;12.30
6407;DHT22;3236;51.022;6.818;2023-06-10T13:47:20;34.30;12.00
6407;DHT22;3236;51.022;6.818;2023-06-10T13:49:48;34.70;12.80
6407;DHT22;3236;51.022;6.818;2023-06-10T13:59:43;36.40;6.30
6407;DHT22;3236;51.022;6.818;2023-06-10T14:02:10;36.80;3.90
6407;DHT22;3236;51.022;6.818;2023-06-10T14:04:38;37.20;4.30
6407;DHT22;3236;51.022;6.818;2023-06-10T14:07:06;36.70;1.60
6407;DHT22;3236;51.022;6.818;2023-06-10T14:09:34;37.10;2.80
6407;DHT22;3236;51.022;6.818;2023-06-10T14:12:02;37.80;4.50
6407;DHT22;3236;51.022;6.818;2023-06-10T14:14:31;38.00;1.00
6407;DHT22;3236;51.022;6.818;2023-06-10T14:21:54;40.40;1.00
6407;DHT22;3236;51.022;6.818;2023-06-10T14:24:22;39.90;1.00
6407;DHT22;3236;51.022;6.818;2023-06-10T14:26:51;38.80;1.00
6407;DHT22;3236;51.022;6.818;2023-06-10T14:29:20;38.30;1.00
6407;DHT22;3236;51.022;6.818;2023-06-10T14:31:47;39.00;1.00
6407;DHT22;3236;51.022;6.818;2023-06-10T14:34:15;37.20;1.00
6407;DHT22;3236;51.022;6.818;2023-06-10T14:39:10;34.90;1.00
6407;DHT22;3236;51.022;6.818;2023-06-10T14:41:37;34.50;1.00
6407;DHT22;3236;51.022;6.818;2023-06-10T14:44:06;34.20;1.00
6407;DHT22;3236;51.022;6.818;2023-06-10T14:54:01;36.60;1.00
6407;DHT22;3236;51.022;6.818;2023-06-10T15:01:26;37.70;1.00
6407;DHT22;3236;51.022;6.818;2023-06-10T15:18:51;36.00;1.00
6407;DHT22;3236;51.022;6.818;2023-06-10T15:21:19;35.70;1.00
6407;DHT22;3236;51.022;6.818;2023-06-10T15:29:01;35.10;1.00
6407;DHT22;3236;51.022;6.818;2023-06-10T15:36:30;36.00;1.00
6407;DHT22;3236;51.022;6.818;2023-06-10T15:39:01;37.10;1.00
6407;DHT22;3236;51.022;6.818;2023-06-10T15:41:34;37.00;1.00
6407;DHT22;3236;51.022;6.818;2023-06-10T15:44:02;36.80;1.00
6407;DHT22;3236;51.022;6.818;2023-06-10T15:56:25;37.50;1.00
6407;DHT22;3236;51.022;6.818;2023-06-10T15:58:52;37.60;1.00
6407;DHT22;3236;51.022;6.818;2023-06-10T16:01:20;38.10;1.00
6407;DHT22;3236;51.022;6.818;2023-06-10T16:03:47;38.00;1.00
6407;DHT22;3236;51.022;6.818;2023-06-10T16:06:16;38.00;1.00
6407;DHT22;3236;51.022;6.818;2023-06-10T16:08:43;38.50;1.00
6407;DHT22;3236;51.022;6.818;2023-06-10T16:13:47;37.90;1.00
6407;DHT22;3236;51.022;6.818;2023-06-10T16:16:14;37.40;1.00
6407;DHT22;3236;51.022;6.818;2023-06-10T16:18:41;37.70;1.00
6407;DHT22;3236;51.022;6.818;2023-06-10T16:23:37;38.00;1.00
6407;DHT22;3236;51.022;6.818;2023-06-10T16:26:04;38.10;1.00
6407;DHT22;3236;51.022;6.818;2023-06-10T16:28:38;38.50;1.00
6407;DHT22;3236;51.022;6.818;2023-06-10T16:36:03;37.70;1.00
6407;DHT22;3236;51.022;6.818;2023-06-10T16:38:34;37.70;1.00
6407;DHT22;3236;51.022;6.818;2023-06-10T16:41:02;37.60;1.00
6407;DHT22;3236;51.022;6.818;2023-06-10T16:43:30;37.30;1.00
6407;DHT22;3236;51.022;6.818;2023-06-10T16:45:57;37.30;1.00
6407;DHT22;3236;51.022;6.818;2023-06-10T16:48:24;37.30;1.00
6407;DHT22;3236;51.022;6.818;2023-06-10T16:50:51;37.10;1.00
6407;DHT22;3236;51.022;6.818;2023-06-10T16:53:21;37.10;1.00
6407;DHT22;3236;51.022;6.818;2023-06-10T16:55:48;37.10;1.00
6407;DHT22;3236;51.022;6.818;2023-06-10T17:00:44;37.20;1.00
6407;DHT22;3236;51.022;6.818;2023-06-10T17:03:12;36.90;1.00
6407;DHT22;3236;51.022;6.818;2023-06-10T17:05:39;36.80;1.00
6407;DHT22;3236;51.022;6.818;2023-06-10T17:08:09;37.10;1.00
6407;DHT22;3236;51.022;6.818;2023-06-10T17:10:36;36.60;1.00
6407;DHT22;3236;51.022;6.818;2023-06-10T17:13:03;36.50;1.00
6407;DHT22;3236;51.022;6.818;2023-06-10T17:15:31;36.90;1.00
6407;DHT22;3236;51.022;6.818;2023-06-10T17:18:01;36.60;1.00
6407;DHT22;3236;51.022;6.818;2023-06-10T17:20:28;36.50;1.00
6407;DHT22;3236;51.022;6.818;2023-06-10T17:22:57;36.50;1.00
6407;DHT22;3236;51.022;6.818;2023-06-10T17:25:24;36.30;1.00
6407;DHT22;3236;51.022;6.818;2023-06-10T17:27:51;35.70;1.00
6407;DHT22;3236;51.022;6.818;2023-06-10T17:30:18;35.60;1.00
6407;DHT22;3236;51.022;6.818;2023-06-10T17:32:46;35.40;1.00
6407;DHT22;3236;51.022;6.818;2023-06-10T17:35:15;35.50;1.00
6407;DHT22;3236;51.022;6.818;2023-06-10T17:37:42;35.50;1.00
6407;DHT22;3236;51.022;6.818;2023-06-10T17:40:10;35.30;1.00
6407;DHT22;3236;51.022;6.818;2023-06-10T17:42:38;35.30;1.00
6407;DHT22;3236;51.022;6.818;2023-06-10T17:45:06;35.20;1.00
6407;DHT22;3236;51.022;6.818;2023-06-10T17:47:33;35.40;1.00
6407;DHT22;3236;51.022;6.818;2023-06-10T17:50:02;35.30;1.00
6407;DHT22;3236;51.022;6.818;2023-06-10T17:52:29;34.70;1.00
6407;DHT22;3236;51.022;6.818;2023-06-10T17:54:56;34.70;1.00
6407;DHT22;3236;51.022;6.818;2023-06-10T17:57:24;34.50;1.00
6407;DHT22;3236;51.022;6.818;2023-06-10T17:59:51;34.50;1.00
6407;DHT22;3236;51.022;6.818;2023-06-10T18:02:18;34.30;1.00
6407;DHT22;3236;51.022;6.818;2023-06-10T18:07:16;34.20;1.00
6407;DHT22;3236;51.022;6.818;2023-06-10T18:09:43;33.80;1.00
6407;DHT22;3236;51.022;6.818;2023-06-10T18:12:11;33.70;1.00
6407;DHT22;3236;51.022;6.818;2023-06-10T18:14:38;32.90;1.10
6407;DHT22;3236;51.022;6.818;2023-06-10T18:19:32;31.90;3.70
6407;DHT22;3236;51.022;6.818;2023-06-10T18:22:00;32.00;4.10
6407;DHT22;3236;51.022;6.818;2023-06-10T18:24:28;32.10;5.20
6407;DHT22;3236;51.022;6.818;2023-06-10T18:26:55;31.60;5.90
6407;DHT22;3236;51.022;6.818;2023-06-10T18:29:22;31.50;5.50
6407;DHT22;3236;51.022;6.818;2023-06-10T18:31:52;31.20;6.20
6407;DHT22;3236;51.022;6.818;2023-06-10T18:34:20;30.90;6.50
6407;DHT22;3236;51.022;6.818;2023-06-10T18:36:47;30.50;7.90
6407;DHT22;3236;51.022;6.818;2023-06-10T18:39:14;30.30;8.80